createdAt,value
2018-09-15T00:02:17.455Z,16.90
2018-09-15T00:04:46.146Z,16.90
2018-09-15T00:07:15.776Z,16.90
2018-09-15T00:09:45.184Z,16.90
2018-09-15T00:12:13.998Z,16.90
2018-09-15T00:14:42.736Z,16.80
2018-09-15T00:17:11.791Z,16.80
2018-09-15T00:19:40.492Z,16.70
2018-09-15T00:22:11.160Z,16.60
2018-09-15T00:24:39.885Z,16.50
2018-09-15T00:27:08.571Z,16.50
2018-09-15T00:29:37.243Z,16.50
2018-09-15T00:32:05.996Z,16.50
2018-09-15T00:34:34.573Z,16.50
2018-09-15T00:37:03.101Z,16.50
2018-09-15T00:39:31.646Z,16.50
2018-09-15T00:42:00.166Z,16.40
2018-09-15T00:44:28.777Z,16.40
2018-09-15T00:46:57.433Z,16.40
2018-09-15T00:49:26.089Z,16.50
2018-09-15T00:51:54.778Z,16.40
2018-09-15T00:54:23.353Z,16.50
2018-09-15T00:56:52.005Z,16.50
2018-09-15T00:59:20.678Z,16.40
2018-09-15T01:01:49.250Z,16.40
2018-09-15T01:04:17.979Z,16.40
2018-09-15T01:06:46.696Z,16.40
2018-09-15T01:09:15.393Z,16.30
2018-09-15T01:11:44.090Z,16.30
2018-09-15T01:14:13.217Z,16.20
2018-09-15T01:16:42.058Z,16.00
2018-09-15T01:19:10.695Z,16.00
2018-09-15T01:21:39.335Z,15.90
2018-09-15T01:24:08.955Z,15.80
2018-09-15T01:26:38.000Z,15.80
2018-09-15T01:29:06.723Z,15.70
2018-09-15T01:31:35.306Z,15.60
2018-09-15T01:34:03.958Z,15.60
2018-09-15T01:36:32.573Z,15.60
2018-09-15T01:39:01.220Z,15.60
2018-09-15T01:41:29.875Z,15.40
2018-09-15T01:43:58.532Z,15.30
2018-09-15T01:46:27.200Z,15.30
2018-09-15T01:48:56.063Z,15.20
2018-09-15T01:51:24.928Z,15.30
2018-09-15T01:53:53.605Z,15.40
2018-09-15T01:56:22.301Z,15.40
2018-09-15T01:58:51.043Z,15.50
2018-09-15T02:01:19.723Z,15.40
2018-09-15T02:03:48.404Z,15.40
2018-09-15T02:06:17.087Z,15.40
2018-09-15T02:08:45.776Z,15.50
2018-09-15T02:11:14.431Z,15.50
2018-09-15T02:13:43.215Z,15.60
2018-09-15T02:16:11.925Z,15.60
2018-09-15T02:18:40.602Z,15.60
2018-09-15T02:21:09.520Z,15.60
2018-09-15T02:23:38.174Z,15.50
2018-09-15T02:26:07.188Z,15.50
2018-09-15T02:28:35.916Z,15.50
2018-09-15T02:31:04.676Z,15.60
2018-09-15T02:33:33.248Z,15.50
2018-09-15T02:36:01.819Z,15.40
2018-09-15T02:38:30.403Z,15.40
2018-09-15T02:40:58.963Z,15.30
2018-09-15T02:43:27.549Z,15.30
2018-09-15T02:45:56.159Z,15.40
2018-09-15T02:48:24.703Z,15.40
2018-09-15T02:50:53.261Z,15.40
2018-09-15T02:53:21.826Z,15.40
2018-09-15T02:55:50.436Z,15.40
2018-09-15T02:58:19.030Z,15.40
2018-09-15T03:00:47.584Z,15.40
2018-09-15T03:03:16.111Z,15.40
2018-09-15T03:05:44.848Z,15.30
2018-09-15T03:08:13.522Z,15.20
2018-09-15T03:10:42.222Z,15.20
2018-09-15T03:13:10.791Z,15.30
2018-09-15T03:15:39.431Z,15.30
2018-09-15T03:18:08.111Z,15.40
2018-09-15T03:20:36.808Z,15.50
2018-09-15T03:23:05.525Z,15.50
2018-09-15T03:25:34.153Z,15.40
2018-09-15T03:28:02.703Z,15.30
2018-09-15T03:30:31.276Z,15.40
2018-09-15T03:32:59.821Z,15.30
2018-09-15T03:35:28.356Z,15.20
2018-09-15T03:37:56.921Z,15.10
2018-09-15T03:40:25.458Z,15.10
2018-09-15T03:42:54.411Z,15.00
2018-09-15T03:45:23.077Z,14.80
2018-09-15T03:47:51.727Z,14.70
2018-09-15T03:50:20.351Z,14.60
2018-09-15T03:52:49.006Z,14.50
2018-09-15T03:55:17.563Z,14.50
2018-09-15T03:57:46.354Z,14.40
2018-09-15T04:00:14.897Z,14.40
2018-09-15T04:02:43.544Z,14.40
2018-09-15T04:05:12.091Z,14.30
2018-09-15T04:07:40.654Z,14.30
2018-09-15T04:10:09.229Z,14.40
2018-09-15T04:12:38.283Z,14.50
2018-09-15T04:15:06.979Z,14.50
2018-09-15T04:17:35.621Z,14.50
2018-09-15T04:20:04.328Z,14.60
2018-09-15T04:22:32.971Z,14.70
2018-09-15T04:25:01.574Z,14.70
2018-09-15T04:27:30.106Z,14.60
2018-09-15T04:29:58.636Z,14.70
2018-09-15T04:32:27.179Z,14.80
2018-09-15T04:34:56.369Z,14.80
2018-09-15T04:37:25.081Z,15.00
2018-09-15T04:39:53.759Z,15.00
2018-09-15T04:42:22.439Z,15.00
2018-09-15T04:44:51.780Z,14.80
2018-09-15T04:47:20.496Z,14.70
2018-09-15T04:49:49.195Z,14.70
2018-09-15T04:52:17.868Z,14.70
2018-09-15T04:54:46.562Z,14.70
2018-09-15T04:57:20.696Z,14.80
2018-09-15T04:59:49.300Z,14.80
2018-09-15T05:02:17.878Z,14.70
2018-09-15T05:04:46.586Z,14.70
2018-09-15T05:07:15.286Z,14.70
2018-09-15T05:09:43.955Z,14.70
2018-09-15T05:12:12.654Z,14.70
2018-09-15T05:14:41.236Z,14.70
2018-09-15T05:17:09.836Z,14.60
2018-09-15T05:19:38.407Z,14.60
2018-09-15T05:22:07.281Z,14.70
2018-09-15T05:24:35.864Z,14.70
2018-09-15T05:27:04.757Z,14.80
2018-09-15T05:29:33.316Z,15.00
2018-09-15T05:32:01.895Z,15.20
2018-09-15T05:34:30.493Z,15.40
2018-09-15T05:36:59.096Z,15.50
2018-09-15T05:39:27.676Z,15.70
2018-09-15T05:41:56.229Z,15.90
2018-09-15T05:44:24.863Z,16.00
2018-09-15T05:46:53.551Z,16.00
2018-09-15T05:49:22.321Z,16.20
2018-09-15T05:51:51.039Z,16.30
2018-09-15T05:54:19.860Z,16.30
2018-09-15T05:56:48.584Z,16.30
2018-09-15T05:59:17.341Z,16.40
2018-09-15T06:01:46.172Z,16.50
2018-09-15T06:04:14.881Z,16.70
2018-09-15T06:06:44.232Z,16.80
2018-09-15T06:09:13.016Z,17.10
2018-09-15T06:11:42.696Z,17.40
2018-09-15T06:14:11.394Z,17.60
2018-09-15T06:16:40.186Z,17.90
2018-09-15T06:19:08.908Z,18.10
2018-09-15T06:21:37.691Z,18.10
2018-09-15T06:24:06.420Z,18.30
2018-09-15T06:26:36.725Z,18.60
2018-09-15T06:29:05.719Z,18.60
2018-09-15T06:31:34.667Z,18.60
2018-09-15T06:34:03.623Z,18.70
2018-09-15T06:36:32.578Z,18.90
2018-09-15T06:39:01.506Z,19.00
2018-09-15T06:41:30.318Z,19.30
2018-09-15T06:43:59.276Z,19.40
2018-09-15T06:46:28.171Z,19.30
2018-09-15T06:48:57.148Z,19.70
2018-09-15T06:51:26.105Z,19.50
2018-09-15T06:53:54.996Z,19.60
2018-09-15T06:56:23.926Z,19.60
2018-09-15T06:58:52.842Z,19.70
2018-09-15T07:01:21.721Z,19.80
2018-09-15T07:03:50.655Z,19.60
2018-09-15T07:06:19.514Z,19.80
2018-09-15T07:08:48.422Z,19.90
2018-09-15T07:11:17.379Z,20.30
2018-09-15T07:13:46.374Z,20.80
2018-09-15T07:16:15.756Z,21.10
2018-09-15T07:18:44.596Z,21.30
2018-09-15T07:21:13.763Z,21.40
2018-09-15T07:23:42.597Z,21.60
2018-09-15T07:26:11.388Z,21.60
2018-09-15T07:28:40.163Z,21.10
2018-09-15T07:31:08.986Z,21.60
2018-09-15T07:33:37.838Z,22.10
2018-09-15T07:36:06.756Z,22.50
2018-09-15T07:38:35.633Z,22.70
2018-09-15T07:41:04.983Z,22.80
2018-09-15T07:43:34.866Z,23.00
2018-09-15T07:46:03.596Z,23.30
2018-09-15T07:48:32.327Z,23.60
2018-09-15T07:51:01.102Z,23.70
2018-09-15T07:53:29.789Z,23.90
2018-09-15T07:55:58.651Z,24.30
2018-09-15T07:58:27.531Z,24.50
2018-09-15T08:00:56.381Z,24.80
2018-09-15T08:03:25.293Z,24.80
2018-09-15T08:05:54.109Z,25.10
2018-09-15T08:08:23.054Z,24.90
2018-09-15T08:10:51.899Z,25.20
2018-09-15T08:13:20.567Z,25.50
2018-09-15T08:15:49.403Z,25.70
2018-09-15T08:18:18.311Z,26.00
2018-09-15T08:20:47.218Z,26.20
2018-09-15T08:23:20.034Z,26.50
2018-09-15T08:25:54.636Z,26.40
2018-09-15T08:28:23.644Z,26.50
2018-09-15T08:30:53.407Z,26.70
2018-09-15T08:33:22.319Z,27.00
2018-09-15T08:35:51.532Z,27.10
2018-09-15T08:38:20.664Z,27.10
2018-09-15T08:40:49.847Z,27.00
2018-09-15T08:43:18.947Z,27.00
2018-09-15T08:45:50.238Z,26.90
2018-09-15T08:48:19.404Z,27.30
2018-09-15T08:50:49.136Z,27.70
2018-09-15T08:53:19.891Z,27.90
2018-09-15T08:55:49.106Z,28.20
2018-09-15T08:58:18.619Z,27.80
2018-09-15T09:00:48.294Z,28.10
2018-09-15T09:03:17.276Z,28.80
2018-09-15T09:05:46.289Z,29.30
2018-09-15T09:08:15.200Z,29.20
2018-09-15T09:10:44.288Z,29.10
2018-09-15T09:13:13.163Z,29.10
2018-09-15T09:15:47.579Z,29.20
2018-09-15T09:18:21.936Z,29.50
2018-09-15T09:20:50.911Z,29.70
2018-09-15T09:23:19.889Z,30.20
2018-09-15T09:25:54.564Z,30.70
2018-09-15T09:28:23.399Z,30.20
2018-09-15T09:30:52.313Z,30.50
2018-09-15T09:33:21.270Z,30.80
2018-09-15T09:35:50.165Z,31.10
2018-09-15T09:38:19.116Z,30.80
2018-09-15T09:40:48.136Z,30.80
2018-09-15T09:43:17.320Z,31.00
2018-09-15T09:45:46.411Z,31.30
2018-09-15T09:48:15.325Z,31.70
2018-09-15T09:50:44.365Z,31.60
2018-09-15T09:53:13.346Z,32.00
2018-09-15T09:55:42.316Z,32.20
2018-09-15T09:58:11.399Z,32.30
2018-09-15T10:00:46.619Z,32.60
2018-09-15T10:03:15.551Z,32.70
2018-09-15T10:05:44.669Z,33.20
2018-09-15T10:08:13.859Z,33.10
2018-09-15T10:10:42.931Z,32.90
2018-09-15T10:13:11.941Z,33.00
2018-09-15T10:15:43.916Z,33.20
2018-09-15T10:18:12.936Z,33.10
2018-09-15T10:20:42.353Z,33.10
2018-09-15T10:23:12.131Z,33.30
2018-09-15T10:25:41.106Z,33.50
2018-09-15T10:28:10.005Z,33.00
2018-09-15T10:30:38.944Z,33.20
2018-09-15T10:33:07.893Z,33.10
2018-09-15T10:35:36.938Z,33.80
2018-09-15T10:38:06.131Z,33.80
2018-09-15T10:40:35.257Z,33.90
2018-09-15T10:43:04.308Z,34.20
2018-09-15T10:45:33.373Z,34.10
2018-09-15T10:48:02.456Z,34.10
2018-09-15T10:50:31.543Z,34.20
2018-09-15T10:53:00.559Z,34.00
2018-09-15T10:55:29.618Z,33.90
2018-09-15T10:57:58.679Z,34.00
2018-09-15T11:00:27.971Z,33.70
2018-09-15T11:02:56.883Z,34.80
2018-09-15T11:05:27.693Z,34.80
2018-09-15T11:07:56.673Z,34.60
2018-09-15T11:10:26.060Z,34.80
2018-09-15T11:12:56.134Z,34.50
2018-09-15T11:15:26.246Z,34.80
2018-09-15T11:17:55.363Z,34.60
2018-09-15T11:20:24.431Z,34.70
2018-09-15T11:22:53.554Z,35.20
2018-09-15T11:25:22.636Z,35.20
2018-09-15T11:27:51.926Z,35.10
2018-09-15T11:30:21.842Z,35.10
2018-09-15T11:32:50.793Z,35.10
2018-09-15T11:35:19.787Z,34.80
2018-09-15T11:37:48.985Z,34.80
2018-09-15T11:40:18.054Z,35.10
2018-09-15T11:42:47.328Z,35.40
2018-09-15T11:45:16.414Z,35.60
2018-09-15T11:47:45.481Z,35.50
2018-09-15T11:50:15.279Z,35.10
2018-09-15T11:52:44.527Z,35.50
2018-09-15T11:55:13.638Z,35.30
2018-09-15T11:57:42.704Z,35.10
2018-09-15T12:00:12.975Z,35.00
2018-09-15T12:02:43.354Z,34.60
2018-09-15T12:05:12.179Z,34.50
2018-09-15T12:07:41.084Z,34.90
2018-09-15T12:10:09.993Z,34.50
2018-09-15T12:12:39.424Z,34.50
2018-09-15T12:15:08.876Z,34.80
2018-09-15T12:17:38.020Z,34.70
2018-09-15T12:20:07.936Z,35.50
2018-09-15T12:22:36.875Z,35.20
2018-09-15T12:25:06.076Z,35.20
2018-09-15T12:27:35.334Z,35.10
2018-09-15T12:30:04.416Z,35.00
2018-09-15T12:32:38.696Z,35.30
2018-09-15T12:35:07.407Z,35.40
2018-09-15T12:37:37.069Z,35.10
2018-09-15T12:40:05.966Z,35.20
2018-09-15T12:42:35.505Z,35.20
2018-09-15T12:45:09.766Z,35.10
2018-09-15T12:47:39.439Z,35.00
2018-09-15T12:50:08.188Z,35.30
2018-09-15T12:52:37.258Z,35.00
2018-09-15T12:55:06.059Z,34.90
2018-09-15T12:57:34.772Z,34.90
2018-09-15T13:00:04.077Z,35.20
2018-09-15T13:02:33.436Z,35.40
2018-09-15T13:05:02.659Z,35.80
2018-09-15T13:07:31.417Z,35.90
2018-09-15T13:10:01.977Z,35.70
2018-09-15T13:12:30.838Z,35.80
2018-09-15T13:14:59.664Z,35.90
2018-09-15T13:17:28.397Z,36.40
2018-09-15T13:19:57.273Z,36.40
2018-09-15T13:22:26.119Z,36.50
2018-09-15T13:24:56.123Z,35.80
2018-09-15T13:27:25.424Z,34.80
2018-09-15T13:29:54.648Z,34.60
2018-09-15T13:32:23.251Z,34.80
2018-09-15T13:34:52.116Z,35.20
2018-09-15T13:37:20.801Z,35.40
2018-09-15T13:42:29.559Z,36.00
2018-09-15T13:44:58.403Z,35.50
2018-09-15T13:47:27.122Z,35.60
2018-09-15T13:50:02.539Z,35.60
2018-09-15T13:52:31.975Z,35.40
2018-09-15T13:55:00.714Z,35.70
2018-09-15T13:57:29.573Z,35.60
2018-09-15T13:59:59.204Z,35.80
2018-09-15T14:02:27.914Z,35.80
2018-09-15T14:04:56.741Z,35.90
2018-09-15T14:07:30.778Z,35.90
2018-09-15T14:09:59.433Z,35.50
2018-09-15T14:12:28.211Z,35.90
2018-09-15T14:14:56.838Z,36.50
2018-09-15T14:17:25.471Z,36.50
2018-09-15T14:19:54.206Z,35.50
2018-09-15T14:22:23.133Z,35.10
2018-09-15T14:24:57.481Z,35.70
2018-09-15T14:27:26.311Z,36.20
2018-09-15T14:29:55.054Z,36.20
2018-09-15T14:32:23.716Z,35.60
2018-09-15T14:34:52.437Z,35.40
2018-09-15T14:37:21.451Z,35.70
2018-09-15T14:39:50.068Z,35.80
2018-09-15T14:42:24.968Z,35.50
2018-09-15T14:44:53.958Z,35.40
2018-09-15T14:47:23.273Z,35.30
2018-09-15T14:49:57.463Z,35.50
2018-09-15T14:52:26.168Z,35.40
2018-09-15T14:54:55.452Z,34.20
2018-09-15T14:57:24.173Z,33.20
2018-09-15T14:59:52.838Z,32.90
2018-09-15T15:02:21.723Z,33.10
2018-09-15T15:04:56.108Z,33.50
2018-09-15T15:07:24.846Z,33.80
2018-09-15T15:09:59.166Z,34.10
2018-09-15T15:12:27.811Z,34.10
2018-09-15T15:14:56.484Z,34.10
2018-09-15T15:17:26.186Z,34.20
2018-09-15T15:19:56.711Z,34.10
2018-09-15T15:22:25.516Z,34.20
2018-09-15T15:24:54.303Z,34.20
2018-09-15T15:27:23.508Z,34.00
2018-09-15T15:29:52.258Z,33.40
2018-09-15T15:32:21.638Z,32.20
2018-09-15T15:34:50.447Z,31.20
2018-09-15T15:37:19.116Z,31.10
2018-09-15T15:39:47.827Z,30.70
2018-09-15T15:42:16.542Z,30.10
2018-09-15T15:44:45.330Z,29.80
2018-09-15T15:47:14.181Z,29.80
2018-09-15T15:49:43.003Z,29.70
2018-09-15T15:52:11.851Z,29.60
2018-09-15T15:54:40.641Z,29.40
2018-09-15T15:57:09.293Z,29.30
2018-09-15T15:59:38.536Z,29.20
2018-09-15T16:02:07.201Z,29.00
2018-09-15T16:04:36.616Z,28.90
2018-09-15T16:07:05.463Z,28.80
2018-09-15T16:09:34.728Z,28.80
2018-09-15T16:12:04.203Z,28.70
2018-09-15T16:14:34.363Z,28.70
2018-09-15T16:17:04.052Z,28.60
2018-09-15T16:19:33.190Z,28.60
2018-09-15T16:22:01.977Z,28.50
2018-09-15T16:24:31.085Z,28.40
2018-09-15T16:27:00.638Z,28.20
2018-09-15T16:29:29.785Z,28.10
2018-09-15T16:31:58.845Z,28.10
2018-09-15T16:34:27.456Z,28.10
2018-09-15T16:36:56.240Z,28.00
2018-09-15T16:39:25.026Z,27.90
2018-09-15T16:41:53.753Z,27.80
2018-09-15T16:44:23.190Z,27.80
2018-09-15T16:46:51.951Z,27.70
2018-09-15T16:49:20.760Z,27.50
2018-09-15T16:51:50.355Z,27.40
2018-09-15T16:54:19.190Z,27.30
2018-09-15T16:56:47.958Z,27.30
2018-09-15T16:59:17.679Z,27.10
2018-09-15T17:01:46.521Z,26.90
2018-09-15T17:04:15.241Z,26.80
2018-09-15T17:06:44.796Z,26.70
2018-09-15T17:09:14.309Z,26.60
2018-09-15T17:11:43.523Z,26.60
2018-09-15T17:14:12.377Z,26.50
2018-09-15T17:16:41.336Z,26.40
2018-09-15T17:19:10.756Z,26.30
2018-09-15T17:21:39.501Z,26.10
2018-09-15T17:24:08.686Z,26.00
2018-09-15T17:26:37.569Z,25.90
2018-09-15T17:29:06.349Z,25.80
2018-09-15T17:31:35.060Z,25.60
2018-09-15T17:34:03.777Z,25.40
2018-09-15T17:36:32.552Z,25.30
2018-09-15T17:39:01.255Z,25.20
2018-09-15T17:41:35.624Z,25.10
2018-09-15T17:44:04.392Z,25.10
2018-09-15T17:46:33.136Z,25.00
2018-09-15T17:49:01.792Z,24.90
2018-09-15T17:51:30.423Z,24.80
2018-09-15T17:53:59.021Z,24.70
2018-09-15T17:56:27.729Z,24.70
2018-09-15T17:58:56.414Z,24.60
2018-09-15T18:01:25.209Z,24.50
2018-09-15T18:03:53.872Z,24.50
2018-09-15T18:06:22.652Z,24.40
2018-09-15T18:08:51.984Z,24.40
2018-09-15T18:11:21.996Z,24.40
2018-09-15T18:13:51.362Z,24.40
2018-09-15T18:16:21.002Z,24.40
2018-09-15T18:18:49.671Z,24.40
2018-09-15T18:21:18.248Z,24.40
2018-09-15T18:23:46.895Z,24.30
2018-09-15T18:26:15.548Z,24.00
2018-09-15T18:28:44.163Z,23.80
2018-09-15T18:31:12.901Z,23.80
2018-09-15T18:33:42.379Z,23.70
2018-09-15T18:36:11.595Z,23.70
2018-09-15T18:38:45.548Z,23.60
2018-09-15T18:41:14.193Z,23.60
2018-09-15T18:43:48.401Z,23.50
2018-09-15T18:46:17.206Z,23.40
2018-09-15T18:48:45.928Z,23.40
2018-09-15T18:51:14.731Z,23.30
2018-09-15T18:53:43.388Z,23.20
2018-09-15T18:56:12.580Z,23.20
2018-09-15T18:58:41.313Z,23.10
2018-09-15T19:01:10.031Z,23.00
2018-09-15T19:03:39.139Z,22.90
2018-09-15T19:06:07.930Z,22.80
2018-09-15T19:08:37.145Z,22.80
2018-09-15T19:11:06.057Z,22.70
2018-09-15T19:13:35.500Z,22.70
2018-09-15T19:16:04.269Z,22.70
2018-09-15T19:18:33.118Z,22.60
2018-09-15T19:21:02.026Z,22.50
2018-09-15T19:23:32.524Z,22.50
2018-09-15T19:26:01.308Z,22.50
2018-09-15T19:28:30.073Z,22.40
2018-09-15T19:30:59.246Z,22.40
2018-09-15T19:33:28.048Z,22.40
2018-09-15T19:35:56.826Z,22.40
2018-09-15T19:38:26.655Z,22.40
2018-09-15T19:40:55.734Z,22.30
2018-09-15T19:43:24.809Z,22.20
2018-09-15T19:45:53.559Z,22.00
2018-09-15T19:48:22.198Z,21.90
2018-09-15T19:50:51.133Z,21.80
2018-09-15T19:53:20.426Z,21.80
2018-09-15T19:55:49.371Z,21.70
2018-09-15T19:58:18.468Z,21.70
2018-09-15T20:00:48.450Z,21.60
2018-09-15T20:03:17.360Z,21.60
2018-09-15T20:05:46.217Z,21.50
2018-09-15T20:08:15.043Z,21.50
2018-09-15T20:10:44.337Z,21.40
2018-09-15T20:13:13.144Z,21.40
2018-09-15T20:15:39.961Z,21.30
2018-09-15T20:18:06.820Z,21.30
2018-09-15T20:20:33.631Z,21.30
2018-09-15T20:23:02.407Z,21.30
2018-09-15T20:25:31.191Z,21.30
2018-09-15T20:28:00.420Z,21.20
2018-09-15T20:30:29.084Z,21.10
2018-09-15T20:32:58.157Z,21.00
2018-09-15T20:35:27.206Z,21.00
2018-09-15T20:37:56.963Z,21.00
2018-09-15T20:40:25.767Z,20.90
2018-09-15T20:42:54.408Z,20.80
2018-09-15T20:45:23.166Z,20.80
2018-09-15T20:47:57.389Z,20.70
2018-09-15T20:50:32.569Z,20.60
2018-09-15T20:53:06.841Z,20.50
2018-09-15T20:55:35.648Z,20.40
2018-09-15T20:58:04.578Z,20.50
2018-09-15T21:00:33.408Z,20.40
2018-09-15T21:03:02.236Z,20.50
2018-09-15T21:05:31.872Z,20.60
2018-09-15T21:08:00.585Z,20.60
2018-09-15T21:10:34.730Z,20.60
2018-09-15T21:13:03.443Z,20.60
2018-09-15T21:15:32.012Z,20.60
2018-09-15T21:18:00.800Z,20.60
2018-09-15T21:20:29.475Z,20.50
2018-09-15T21:22:58.200Z,20.50
2018-09-15T21:25:27.060Z,20.50
2018-09-15T21:27:55.745Z,20.50
2018-09-15T21:30:25.075Z,20.50
2018-09-15T21:32:53.880Z,20.50
2018-09-15T21:35:22.526Z,20.50
2018-09-15T21:37:51.188Z,20.40
2018-09-15T21:40:19.858Z,20.40
2018-09-15T21:42:48.490Z,20.30
2018-09-15T21:45:17.216Z,20.20
2018-09-15T21:47:45.879Z,20.20
2018-09-15T21:50:14.555Z,20.10
2018-09-15T21:52:43.221Z,20.10
2018-09-15T21:55:12.921Z,20.10
2018-09-15T21:57:41.689Z,20.00
2018-09-15T22:00:11.861Z,19.90
2018-09-15T22:02:40.570Z,19.90
2018-09-15T22:05:09.318Z,19.90
2018-09-15T22:07:38.240Z,19.90
2018-09-15T22:10:07.023Z,19.90
2018-09-15T22:12:35.734Z,19.80
2018-09-15T22:15:04.618Z,19.70
2018-09-15T22:17:33.336Z,19.60
2018-09-15T22:20:02.016Z,19.40
2018-09-15T22:22:30.695Z,19.30
2018-09-15T22:24:59.368Z,19.20
2018-09-15T22:27:27.928Z,19.30
2018-09-15T22:29:56.593Z,19.20
2018-09-15T22:32:25.780Z,19.20
2018-09-15T22:34:54.901Z,19.10
2018-09-15T22:37:23.521Z,19.00
2018-09-15T22:39:52.148Z,18.90
2018-09-15T22:42:26.360Z,18.90
2018-09-15T22:44:54.913Z,18.90
2018-09-15T22:47:23.574Z,19.00
2018-09-15T22:49:52.185Z,19.00
2018-09-15T22:52:21.635Z,19.00
2018-09-15T22:54:50.376Z,19.00
2018-09-15T22:57:19.090Z,19.10
2018-09-15T22:59:48.022Z,19.10
2018-09-15T23:02:17.051Z,19.10
2018-09-15T23:04:45.781Z,19.10
2018-09-15T23:07:14.463Z,19.10
2018-09-15T23:09:43.173Z,19.10
2018-09-15T23:12:11.800Z,19.10
2018-09-15T23:14:40.483Z,19.10
2018-09-15T23:17:09.121Z,19.10
2018-09-15T23:19:37.763Z,19.00
2018-09-15T23:22:07.640Z,18.90
2018-09-15T23:24:37.346Z,18.90
2018-09-15T23:27:06.083Z,18.90
2018-09-15T23:29:34.923Z,18.90
2018-09-15T23:32:03.712Z,18.80
2018-09-15T23:34:32.496Z,18.80
2018-09-15T23:37:01.209Z,18.90
2018-09-15T23:39:29.956Z,18.90
2018-09-15T23:41:58.713Z,18.90
2018-09-15T23:44:28.026Z,18.90
2018-09-15T23:46:56.793Z,18.90
2018-09-15T23:49:25.486Z,18.80
2018-09-15T23:51:54.199Z,18.80
2018-09-15T23:54:22.961Z,18.80
2018-09-15T23:56:51.665Z,18.70
2018-09-15T23:59:20.381Z,18.80
